Time;durP1;ratioP1;P1;durP2;ratioP2;P2;SDS_P1;SDS_P2;PMS_P1;PMS_P2;Temp;Humidity;BMP_temperature;BMP_pressure;BME280_temperature;BME280_humidity;BME280_pressure;Samples;Min_cycle;Max_cycle;Signal;HPM_P1;HPM_P2
2023/11/17 00:00:53;;;;;;;4.80;2.43;;;7.50;99.90;;;;;;5050996;28;20205;-59
2023/11/17 00:03:19;;;;;;;4.90;2.17;;;7.60;99.90;;;;;;5050831;28;20236;-60
2023/11/17 00:05:46;;;;;;;4.27;2.70;;;7.60;99.90;;;;;;5051872;28;20212;-60
2023/11/17 00:08:13;;;;;;;3.60;2.80;;;7.60;99.90;;;;;;5051288;28;20206;-59
2023/11/17 00:10:40;;;;;;;2.73;2.50;;;7.70;99.90;;;;;;5051064;28;20213;-60
2023/11/17 00:13:06;;;;;;;5.83;2.57;;;7.70;99.90;;;;;;5051214;28;20230;-60
2023/11/17 00:15:34;;;;;;;6.03;2.47;;;7.70;99.90;;;;;;5050742;28;20683;-59
2023/11/17 00:18:02;;;;;;;3.93;2.47;;;7.70;99.90;;;;;;5051105;28;20213;-59
2023/11/17 00:20:29;;;;;;;4.40;2.10;;;7.70;99.90;;;;;;5042828;28;20671;-59
2023/11/17 00:22:55;;;;;;;3.37;1.93;;;7.60;99.90;;;;;;5051151;28;20296;-59
2023/11/17 00:25:23;;;;;;;1.83;1.60;;;7.60;99.90;;;;;;5050745;28;20240;-59
2023/11/17 00:27:50;;;;;;;2.80;1.90;;;7.60;99.90;;;;;;5051041;28;20207;-59
2023/11/17 00:30:17;;;;;;;4.00;1.57;;;7.60;99.90;;;;;;5050653;28;20217;-59
2023/11/17 00:32:44;;;;;;;4.80;1.70;;;7.60;99.90;;;;;;5050856;28;20221;-59
2023/11/17 00:35:12;;;;;;;2.27;2.00;;;7.60;99.90;;;;;;5050680;28;20233;-59
2023/11/17 00:37:39;;;;;;;4.37;2.23;;;7.70;99.90;;;;;;5050991;28;20307;-60
2023/11/17 00:40:07;;;;;;;3.10;2.10;;;7.70;99.90;;;;;;5050620;28;20214;-58
2023/11/17 00:42:34;;;;;;;4.20;2.20;;;7.90;99.90;;;;;;5050481;28;20261;-59
2023/11/17 00:45:01;;;;;;;5.43;2.37;;;7.90;99.90;;;;;;5050727;28;20233;-59
2023/11/17 00:47:27;;;;;;;3.10;2.17;;;8.00;99.90;;;;;;5050838;28;20251;-58
2023/11/17 00:49:54;;;;;;;2.80;1.90;;;8.10;99.90;;;;;;5050976;28;20214;-59
2023/11/17 00:52:22;;;;;;;2.53;1.90;;;8.00;99.90;;;;;;5050482;28;20234;-60
2023/11/17 00:54:49;;;;;;;9.17;1.93;;;8.00;99.90;;;;;;5050621;28;20209;-60
2023/11/17 00:57:16;;;;;;;4.70;1.80;;;7.90;99.90;;;;;;5051022;28;20206;-59
2023/11/17 00:59:43;;;;;;;5.10;1.90;;;7.90;99.90;;;;;;5051713;28;20284;-60
2023/11/17 01:02:10;;;;;;;4.70;1.90;;;7.80;99.90;;;;;;5050420;28;20233;-59
2023/11/17 01:04:37;;;;;;;4.60;1.80;;;7.80;99.90;;;;;;5050609;28;20210;-60
2023/11/17 01:07:03;;;;;;;2.93;1.67;;;7.70;99.90;;;;;;5050514;28;20206;-60
2023/11/17 01:09:32;;;;;;;4.77;1.90;;;7.60;99.90;;;;;;5036399;28;20213;-59
2023/11/17 01:11:59;;;;;;;2.23;1.60;;;7.60;99.90;;;;;;5054044;28;20205;-60
2023/11/17 01:14:25;;;;;;;2.17;1.60;;;7.60;99.90;;;;;;5054005;28;20620;-60
2023/11/17 01:16:52;;;;;;;2.83;1.40;;;7.60;99.90;;;;;;5054098;28;20214;-61
2023/11/17 01:19:20;;;;;;;4.13;1.77;;;7.60;99.90;;;;;;5053782;28;20210;-60
2023/11/17 01:21:46;;;;;;;5.73;1.53;;;7.50;99.90;;;;;;5053895;28;20296;-59
2023/11/17 01:24:13;;;;;;;12.20;2.13;;;7.50;99.90;;;;;;5053536;28;20209;-60
2023/11/17 01:26:41;;;;;;;2.83;1.23;;;7.50;99.90;;;;;;5053865;28;20675;-60
2023/11/17 01:29:08;;;;;;;8.67;1.47;;;7.40;99.90;;;;;;5053630;28;20210;-60
2023/11/17 01:31:35;;;;;;;6.20;1.63;;;7.40;99.90;;;;;;5053852;28;20295;-59
2023/11/17 01:34:04;;;;;;;5.73;1.40;;;7.50;99.90;;;;;;5053301;28;20626;-60
2023/11/17 01:36:31;;;;;;;4.93;1.27;;;7.60;99.90;;;;;;5037520;28;20588;-60
2023/11/17 01:38:58;;;;;;;1.60;0.97;;;7.60;99.90;;;;;;5053474;28;20202;-60
2023/11/17 01:41:26;;;;;;;3.93;1.80;;;7.50;99.90;;;;;;5053652;28;20212;-59
2023/11/17 01:43:54;;;;;;;3.43;1.50;;;7.50;99.90;;;;;;5053374;28;20222;-59
2023/11/17 01:46:22;;;;;;;2.67;1.40;;;7.40;99.90;;;;;;5053659;28;20206;-60
2023/11/17 01:48:49;;;;;;;3.60;1.50;;;7.60;99.90;;;;;;5053444;28;20280;-60
2023/11/17 01:51:15;;;;;;;4.93;1.17;;;7.70;99.90;;;;;;5053251;28;20213;-60
2023/11/17 01:53:42;;;;;;;7.73;1.53;;;7.70;99.90;;;;;;5053108;28;20714;-60
2023/11/17 01:56:09;;;;;;;3.37;1.27;;;7.70;99.90;;;;;;5053168;28;20288;-59
2023/11/17 01:58:36;;;;;;;5.50;1.50;;;7.60;99.90;;;;;;5053405;28;20211;-60
2023/11/17 02:01:08;;;;;;;9.10;1.83;;;7.60;99.90;;;;;;5053283;28;20213;-60
2023/11/17 02:03:39;;;;;;;3.33;1.20;;;7.70;99.90;;;;;;5037662;28;20608;-60
2023/11/17 02:06:14;;;;;;;2.80;0.90;;;7.80;99.90;;;;;;5053186;28;20233;-60
2023/11/17 02:08:54;;;;;;;2.27;1.10;;;7.90;99.90;;;;;;5039734;28;20343;-61
2023/11/17 02:11:25;;;;;;;2.90;1.50;;;8.00;99.90;;;;;;5053203;28;20569;-60
2023/11/17 02:14:01;;;;;;;1.80;1.33;;;8.20;99.90;;;;;;5052836;28;20283;-59
2023/11/17 02:16:33;;;;;;;4.67;1.43;;;8.10;99.90;;;;;;5052873;28;20205;-60
2023/11/17 02:19:00;;;;;;;2.07;1.70;;;8.10;99.90;;;;;;5053039;28;20216;-61
2023/11/17 02:21:31;;;;;;;2.40;1.13;;;8.10;99.90;;;;;;5052697;28;20205;-60
2023/11/17 02:24:00;;;;;;;1.43;1.20;;;8.10;99.90;;;;;;5052886;28;20249;-59
2023/11/17 02:26:37;;;;;;;3.13;1.40;;;8.20;99.90;;;;;;5052731;28;20209;-61
2023/11/17 02:29:23;;;;;;;2.07;1.70;;;8.00;99.90;;;;;;5052733;28;20459;-60
2023/11/17 02:31:51;;;;;;;1.63;1.23;;;8.10;99.90;;;;;;5041545;28;20214;-60
2023/11/17 02:34:25;;;;;;;1.40;1.30;;;8.30;99.90;;;;;;5052597;28;20269;-59
2023/11/17 02:36:53;;;;;;;2.80;1.57;;;8.30;99.90;;;;;;5053346;28;20209;-60
2023/11/17 02:39:25;;;;;;;2.03;1.53;;;8.40;99.90;;;;;;5053167;28;20209;-60
2023/11/17 02:41:57;;;;;;;1.50;1.30;;;8.50;99.90;;;;;;5052804;28;20216;-59
2023/11/17 02:44:28;;;;;;;1.80;1.60;;;8.60;99.90;;;;;;5052355;28;20644;-58
2023/11/17 02:46:58;;;;;;;2.00;1.80;;;8.60;99.90;;;;;;5052706;28;20210;-59
2023/11/17 02:49:29;;;;;;;2.30;1.90;;;8.60;99.90;;;;;;5052479;28;20209;-60
2023/11/17 02:51:56;;;;;;;4.23;2.10;;;8.70;99.90;;;;;;5052330;28;20206;-59
2023/11/17 02:54:26;;;;;;;4.40;2.63;;;8.70;99.90;;;;;;5052064;28;20206;-59
2023/11/17 02:56:53;;;;;;;3.10;2.17;;;8.70;99.90;;;;;;5052333;28;20281;-60
2023/11/17 02:59:20;;;;;;;2.93;2.27;;;8.70;99.90;;;;;;5052372;28;20209;-59
2023/11/17 03:01:50;;;;;;;3.93;2.60;;;8.80;99.90;;;;;;5052131;28;20590;-59
2023/11/17 03:04:17;;;;;;;4.50;3.00;;;8.90;99.90;;;;;;5051577;28;20703;-59
2023/11/17 03:06:46;;;;;;;2.50;2.30;;;8.90;99.90;;;;;;5052346;28;20629;-60
2023/11/17 03:09:14;;;;;;;3.73;2.87;;;9.00;99.90;;;;;;5052216;28;20251;-59
2023/11/17 03:11:42;;;;;;;4.07;3.20;;;9.10;99.90;;;;;;5052512;28;20210;-59
2023/11/17 03:14:09;;;;;;;4.20;2.80;;;9.10;99.90;;;;;;5052162;28;20683;-59
2023/11/17 03:16:36;;;;;;;3.57;3.20;;;9.20;99.90;;;;;;5054600;28;20216;-60
2023/11/17 03:19:10;;;;;;;3.23;2.70;;;9.20;99.90;;;;;;5053967;28;20209;-60
2023/11/17 03:21:40;;;;;;;3.33;3.00;;;9.30;99.90;;;;;;5045349;28;20667;-60
2023/11/17 03:24:14;;;;;;;4.97;2.67;;;9.30;99.90;;;;;;5051494;28;20263;-60
2023/11/17 03:26:42;;;;;;;3.80;2.90;;;9.30;99.90;;;;;;5037407;28;20236;-60
2023/11/17 03:29:08;;;;;;;4.00;2.73;;;9.40;99.90;;;;;;5051436;28;20255;-60
2023/11/17 03:31:35;;;;;;;4.00;2.70;;;9.40;99.90;;;;;;5051365;28;20202;-60
2023/11/17 03:34:05;;;;;;;2.90;2.43;;;9.30;99.90;;;;;;5051428;28;20276;-60
2023/11/17 03:36:31;;;;;;;5.17;2.50;;;9.30;99.90;;;;;;5051294;28;20296;-60
2023/11/17 03:38:58;;;;;;;3.67;2.47;;;9.40;99.90;;;;;;5051481;28;20205;-60
2023/11/17 03:41:24;;;;;;;4.17;2.47;;;9.40;99.90;;;;;;5051433;28;20216;-60
2023/11/17 03:43:51;;;;;;;3.33;2.93;;;9.40;99.90;;;;;;5051223;28;20229;-60
2023/11/17 03:46:18;;;;;;;3.10;2.50;;;9.40;99.90;;;;;;5051199;28;20220;-60
2023/11/17 03:48:44;;;;;;;3.80;2.70;;;9.30;99.90;;;;;;5051433;28;20214;-60
2023/11/17 03:51:14;;;;;;;3.47;2.90;;;9.30;99.90;;;;;;5051327;28;20239;-59
2023/11/17 03:53:43;;;;;;;3.90;2.97;;;9.40;99.90;;;;;;5051480;28;20225;-61
2023/11/17 03:56:09;;;;;;;3.53;3.23;;;9.50;99.90;;;;;;5051059;28;20679;-58
2023/11/17 03:58:36;;;;;;;3.83;2.83;;;9.50;99.90;;;;;;5051127;28;20206;-60
2023/11/17 04:01:03;;;;;;;4.90;2.90;;;9.50;99.90;;;;;;5051209;28;20216;-60
2023/11/17 04:03:36;;;;;;;4.10;2.90;;;9.50;99.90;;;;;;5087384;22;20659;-62
2023/11/17 04:06:03;;;;;;;4.77;3.30;;;9.50;99.90;;;;;;5070903;28;20259;-63
2023/11/17 04:08:31;;;;;;;3.77;2.77;;;9.50;99.90;;;;;;5070939;28;20217;-63
2023/11/17 04:10:58;;;;;;;29.83;24.47;;;9.50;99.90;;;;;;5070912;28;20201;-63
2023/11/17 04:13:25;;;;;;;3.83;3.10;;;9.40;99.90;;;;;;5062876;28;20324;-63
2023/11/17 04:15:52;;;;;;;5.47;2.97;;;9.40;99.90;;;;;;5062516;28;20211;-63
2023/11/17 04:18:18;;;;;;;4.53;2.70;;;9.40;99.90;;;;;;5061644;28;20208;-63
2023/11/17 04:20:48;;;;;;;4.77;2.73;;;9.40;99.90;;;;;;5059271;28;20197;-63
2023/11/17 04:23:14;;;;;;;8.23;4.47;;;9.50;99.90;;;;;;5059591;28;20225;-63
2023/11/17 04:25:42;;;;;;;3.93;3.10;;;9.50;99.90;;;;;;5062341;28;20223;-63
2023/11/17 04:28:09;;;;;;;4.10;3.07;;;9.50;99.90;;;;;;5062733;28;20201;-63
2023/11/17 04:30:36;;;;;;;4.57;2.90;;;9.50;99.90;;;;;;5050961;28;20758;-63
2023/11/17 04:33:03;;;;;;;4.57;2.60;;;9.50;99.90;;;;;;5058963;28;20737;-63
2023/11/17 04:35:30;;;;;;;2.80;2.30;;;9.50;99.90;;;;;;5061565;28;20394;-64
2023/11/17 04:37:57;;;;;;;3.13;2.53;;;9.40;99.90;;;;;;5062474;28;20197;-64
2023/11/17 04:40:23;;;;;;;3.57;2.60;;;9.40;99.90;;;;;;5060596;28;20201;-63
2023/11/17 04:42:51;;;;;;;3.10;2.60;;;9.40;99.90;;;;;;5060060;28;20229;-64
2023/11/17 04:45:20;;;;;;;4.30;2.77;;;9.40;99.90;;;;;;5063879;28;20208;-64
2023/11/17 04:47:48;;;;;;;4.77;2.77;;;9.40;99.90;;;;;;5066405;28;20204;-64
2023/11/17 04:50:15;;;;;;;4.47;3.43;;;9.50;99.90;;;;;;5065474;28;20233;-64
2023/11/17 04:52:41;;;;;;;4.77;3.37;;;9.50;99.90;;;;;;5062571;28;20221;-64
2023/11/17 04:55:12;;;;;;;4.67;3.30;;;9.50;99.90;;;;;;5062750;28;20289;-64
2023/11/17 04:57:39;;;;;;;3.40;2.77;;;9.50;99.90;;;;;;5054808;28;20684;-62
2023/11/17 05:00:13;;;;;;;8.07;3.40;;;9.60;99.90;;;;;;5062712;28;20197;-63
2023/11/17 05:02:41;;;;;;;4.67;3.07;;;9.60;99.90;;;;;;5054825;28;20669;-62
2023/11/17 05:05:10;;;;;;;4.73;3.30;;;9.60;99.90;;;;;;5062322;28;20214;-62
2023/11/17 05:07:39;;;;;;;4.07;2.80;;;9.50;99.90;;;;;;5054542;28;20226;-61
2023/11/17 05:10:08;;;;;;;3.87;3.00;;;9.60;99.90;;;;;;5062602;28;20202;-63
2023/11/17 05:12:34;;;;;;;4.53;3.00;;;9.60;99.90;;;;;;5065483;28;20252;-62
2023/11/17 05:15:02;;;;;;;6.80;4.57;;;9.50;99.90;;;;;;5065503;28;20197;-61
2023/11/17 05:17:34;;;;;;;3.40;3.00;;;9.50;99.90;;;;;;5063015;28;20239;-61
2023/11/17 05:20:01;;;;;;;5.43;3.80;;;9.60;99.90;;;;;;5062169;28;20205;-63
2023/11/17 05:22:27;;;;;;;5.77;3.70;;;9.60;99.90;;;;;;5064359;28;20217;-61
2023/11/17 05:24:54;;;;;;;5.80;4.03;;;9.60;99.90;;;;;;5065219;28;20235;-63
2023/11/17 05:27:21;;;;;;;5.17;3.60;;;9.60;99.90;;;;;;5064336;28;20224;-63
2023/11/17 05:29:47;;;;;;;6.13;3.77;;;9.60;99.90;;;;;;5062135;28;20209;-62
2023/11/17 05:32:14;;;;;;;6.37;3.53;;;9.60;99.90;;;;;;5062310;28;20216;-63
2023/11/17 05:34:42;;;;;;;5.27;4.50;;;9.60;99.90;;;;;;5065058;28;20201;-63
2023/11/17 05:37:09;;;;;;;3.80;3.40;;;9.60;99.90;;;;;;5065490;28;20201;-63
2023/11/17 05:39:35;;;;;;;5.63;3.73;;;9.50;99.90;;;;;;5061871;28;20289;-62
2023/11/17 05:42:03;;;;;;;6.60;4.23;;;9.50;99.90;;;;;;5061661;28;20589;-63
2023/11/17 05:44:30;;;;;;;7.10;4.20;;;9.40;99.90;;;;;;5063857;28;20230;-62
2023/11/17 05:46:57;;;;;;;6.63;4.50;;;9.40;99.90;;;;;;5065295;28;20232;-63
2023/11/17 05:49:24;;;;;;;3.50;3.20;;;9.40;99.90;;;;;;5063822;28;20197;-61
2023/11/17 05:51:54;;;;;;;4.60;3.33;;;9.40;99.90;;;;;;5061738;28;20675;-64
2023/11/17 05:54:20;;;;;;;4.80;3.60;;;9.40;99.90;;;;;;5061925;28;20249;-62
2023/11/17 05:56:49;;;;;;;4.97;3.67;;;9.40;99.90;;;;;;5064940;28;20576;-62
2023/11/17 05:59:16;;;;;;;5.20;3.80;;;9.40;99.90;;;;;;5064143;28;20232;-64
2023/11/17 06:01:43;;;;;;;7.43;5.10;;;9.40;99.90;;;;;;5061498;28;20686;-64
2023/11/17 06:04:11;;;;;;;4.73;3.50;;;9.30;99.90;;;;;;5060950;28;20228;-62
2023/11/17 06:06:39;;;;;;;5.60;4.20;;;9.30;99.90;;;;;;5053396;28;20198;-62
2023/11/17 06:09:07;;;;;;;6.47;3.93;;;9.40;99.90;;;;;;5061408;28;20244;-64
2023/11/17 06:11:36;;;;;;;7.63;4.83;;;9.50;99.90;;;;;;5064837;28;20493;-62
2023/11/17 06:14:04;;;;;;;5.93;3.60;;;9.50;99.90;;;;;;5064445;28;20251;-63
2023/11/17 06:16:31;;;;;;;4.33;3.40;;;9.60;99.90;;;;;;5064634;28;20213;-63
2023/11/17 06:18:58;;;;;;;4.80;3.70;;;9.60;99.90;;;;;;5064825;28;20205;-64
2023/11/17 06:21:26;;;;;;;4.73;3.47;;;9.70;99.90;;;;;;5063300;28;20580;-64
2023/11/17 06:23:53;;;;;;;7.37;4.13;;;9.70;99.90;;;;;;5060924;28;20236;-63
2023/11/17 06:26:21;;;;;;;5.13;3.30;;;9.70;99.90;;;;;;5061867;28;20210;-64
2023/11/17 06:28:47;;;;;;;7.50;3.40;;;9.70;99.90;;;;;;5064816;28;20205;-63
2023/11/17 06:31:14;;;;;;;3.73;3.10;;;9.70;99.90;;;;;;5064540;28;20208;-63
2023/11/17 06:33:41;;;;;;;7.00;5.47;;;9.70;99.90;;;;;;5061259;28;20254;-64
2023/11/17 06:36:08;;;;;;;7.20;3.70;;;9.70;99.90;;;;;;5060990;28;20213;-64
2023/11/17 06:38:35;;;;;;;3.90;3.50;;;9.70;99.90;;;;;;5063858;28;20201;-64
2023/11/17 06:41:03;;;;;;;4.23;3.37;;;9.70;99.90;;;;;;5064058;28;20201;-64
2023/11/17 06:43:31;;;;;;;4.07;3.63;;;9.70;99.90;;;;;;5061805;28;20224;-64
2023/11/17 06:45:59;;;;;;;6.73;3.90;;;9.60;99.90;;;;;;5060396;28;20202;-64
2023/11/17 06:48:28;;;;;;;4.93;3.67;;;9.60;99.90;;;;;;5062282;28;20641;-64
2023/11/17 06:50:54;;;;;;;5.40;3.13;;;9.60;99.90;;;;;;5063890;28;20205;-64
2023/11/17 06:53:21;;;;;;;7.50;3.67;;;9.60;99.90;;;;;;5062605;28;20621;-64
2023/11/17 06:55:48;;;;;;;5.37;3.37;;;9.70;99.90;;;;;;5060121;28;20205;-64
2023/11/17 06:58:15;;;;;;;6.30;3.90;;;9.80;99.90;;;;;;5060003;28;20204;-64
2023/11/17 07:00:43;;;;;;;4.47;3.27;;;9.80;99.90;;;;;;5063864;28;20224;-64
2023/11/17 07:03:10;;;;;;;5.67;3.77;;;9.80;99.90;;;;;;5063581;28;20224;-64
2023/11/17 07:05:40;;;;;;;5.17;3.67;;;9.80;99.90;;;;;;5059739;28;20305;-64
2023/11/17 07:08:07;;;;;;;4.70;4.00;;;9.70;99.90;;;;;;5059434;28;20209;-64
2023/11/17 07:10:34;;;;;;;4.07;2.97;;;9.70;99.90;;;;;;5063089;28;20239;-64
2023/11/17 07:13:00;;;;;;;5.90;3.73;;;9.70;99.90;;;;;;5063245;28;20735;-64
2023/11/17 07:15:27;;;;;;;5.57;3.97;;;9.80;99.90;;;;;;5061494;28;20623;-63
2023/11/17 07:17:56;;;;;;;4.83;3.43;;;9.80;99.90;;;;;;5059956;28;20686;-63
2023/11/17 07:20:23;;;;;;;6.20;3.00;;;9.80;99.90;;;;;;5060693;28;20205;-63
2023/11/17 07:22:50;;;;;;;3.77;2.97;;;9.80;99.90;;;;;;5063057;28;20228;-63
2023/11/17 07:25:17;;;;;;;4.27;3.57;;;9.90;99.90;;;;;;5062819;28;20224;-63
2023/11/17 07:27:44;;;;;;;5.03;3.60;;;9.90;99.90;;;;;;5059860;28;20201;-62
2023/11/17 07:30:12;;;;;;;5.77;3.30;;;9.90;99.90;;;;;;5059945;28;20255;-63
2023/11/17 07:32:39;;;;;;;7.33;3.20;;;10.00;99.90;;;;;;5062848;28;20320;-63
2023/11/17 07:35:08;;;;;;;3.40;3.00;;;9.90;99.90;;;;;;5062884;28;20216;-61
2023/11/17 07:37:35;;;;;;;4.87;2.70;;;9.90;99.90;;;;;;5060299;28;20201;-62
2023/11/17 07:40:04;;;;;;;4.33;3.10;;;9.90;99.90;;;;;;5059444;28;20209;-61
2023/11/17 07:42:31;;;;;;;5.03;3.50;;;9.90;99.90;;;;;;5061418;28;20621;-63
2023/11/17 07:44:57;;;;;;;3.80;2.80;;;9.90;99.90;;;;;;5063086;28;20232;-64
2023/11/17 07:47:24;;;;;;;3.80;3.10;;;9.80;99.90;;;;;;5061435;28;20619;-63
2023/11/17 07:49:54;;;;;;;4.70;3.10;;;9.80;99.90;;;;;;5059318;28;20205;-62
2023/11/17 07:52:23;;;;;;;4.73;3.60;;;9.80;99.90;;;;;;5060035;28;20275;-62
2023/11/17 07:54:50;;;;;;;6.47;3.30;;;9.80;99.90;;;;;;5062705;28;20676;-64
2023/11/17 07:57:17;;;;;;;4.43;2.83;;;9.90;99.90;;;;;;5062663;28;20233;-62
2023/11/17 07:59:44;;;;;;;5.33;3.20;;;10.00;99.90;;;;;;5059756;28;20259;-62
2023/11/17 08:02:11;;;;;;;4.33;3.23;;;10.10;99.90;;;;;;5058991;28;20212;-63
2023/11/17 08:04:38;;;;;;;4.20;3.80;;;10.10;99.90;;;;;;5062147;28;20216;-62
2023/11/17 08:07:05;;;;;;;7.73;6.40;;;10.20;99.90;;;;;;5062686;28;20284;-63
2023/11/17 08:09:34;;;;;;;7.33;3.37;;;10.20;99.90;;;;;;5060368;28;20663;-64
2023/11/17 08:12:01;;;;;;;5.07;3.20;;;10.10;99.90;;;;;;5059396;28;20259;-63
2023/11/17 08:14:28;;;;;;;3.97;2.93;;;10.20;99.90;;;;;;5060456;28;20248;-67
2023/11/17 08:16:55;;;;;;;3.53;2.97;;;10.20;99.90;;;;;;5062920;28;20663;-63
2023/11/17 08:19:21;;;;;;;3.70;3.20;;;10.20;99.90;;;;;;5065718;28;20223;-60
2023/11/17 08:21:48;;;;;;;5.40;3.30;;;10.20;99.90;;;;;;5063505;28;20205;-64
2023/11/17 08:24:19;;;;;;;4.27;3.57;;;10.10;99.90;;;;;;5062894;28;20230;-63
2023/11/17 08:26:47;;;;;;;8.33;3.33;;;10.10;99.90;;;;;;5055659;28;20205;-62
2023/11/17 08:29:14;;;;;;;4.50;3.40;;;10.10;99.90;;;;;;5063158;28;20205;-63
2023/11/17 08:31:41;;;;;;;5.37;3.40;;;10.10;99.90;;;;;;5066443;28;20228;-62
2023/11/17 08:34:08;;;;;;;7.20;5.63;;;10.10;99.90;;;;;;5066093;28;20229;-63
2023/11/17 08:36:35;;;;;;;4.67;4.10;;;10.20;99.90;;;;;;5063992;28;20228;-62
2023/11/17 08:39:02;;;;;;;4.77;3.90;;;10.30;99.90;;;;;;5063302;28;20213;-63
2023/11/17 08:41:29;;;;;;;5.43;3.70;;;10.30;99.90;;;;;;5064600;28;20206;-62
2023/11/17 08:43:57;;;;;;;9.77;4.47;;;10.30;99.90;;;;;;5066038;28;20228;-63
2023/11/17 08:46:26;;;;;;;6.60;4.20;;;10.40;99.90;;;;;;5065201;28;20642;-63
2023/11/17 08:48:52;;;;;;;5.13;4.47;;;10.50;99.90;;;;;;5062829;28;20213;-63
2023/11/17 08:51:19;;;;;;;4.67;4.17;;;10.50;99.90;;;;;;5062936;28;20201;-63
2023/11/17 08:53:46;;;;;;;10.13;4.50;;;10.50;99.90;;;;;;5065964;28;20580;-63
2023/11/17 08:56:13;;;;;;;4.97;4.40;;;10.60;99.90;;;;;;5066062;28;20228;-63
2023/11/17 08:58:40;;;;;;;6.20;4.80;;;10.50;99.90;;;;;;5062739;28;20293;-63
2023/11/17 09:01:08;;;;;;;8.20;4.63;;;10.50;99.90;;;;;;5062425;28;20201;-63
2023/11/17 09:03:35;;;;;;;5.83;4.67;;;10.60;99.90;;;;;;5064711;28;20237;-63
2023/11/17 09:06:03;;;;;;;6.13;4.93;;;10.50;99.90;;;;;;5065615;28;20235;-62
2023/11/17 09:08:31;;;;;;;6.10;4.80;;;10.50;99.90;;;;;;5064063;28;20240;-63
2023/11/17 09:10:58;;;;;;;5.80;4.93;;;10.50;99.90;;;;;;5062224;28;20204;-61
2023/11/17 09:13:25;;;;;;;6.80;5.07;;;10.50;99.90;;;;;;5063231;28;20244;-63
2023/11/17 09:15:52;;;;;;;7.33;5.43;;;10.50;99.90;;;;;;5065660;28;20232;-63
2023/11/17 09:18:21;;;;;;;6.20;4.97;;;10.50;99.90;;;;;;5065588;28;20296;-63
2023/11/17 09:20:48;;;;;;;6.50;4.93;;;10.60;99.90;;;;;;5061972;28;20205;-63
2023/11/17 09:23:15;;;;;;;9.13;6.20;;;10.60;99.90;;;;;;5062050;28;20226;-63
2023/11/17 09:25:42;;;;;;;7.13;5.30;;;10.70;99.90;;;;;;5064776;28;20213;-63
2023/11/17 09:28:08;;;;;;;6.27;5.00;;;10.80;99.90;;;;;;5065805;28;20212;-63
2023/11/17 09:30:37;;;;;;;9.13;6.20;;;10.90;99.90;;;;;;5061889;28;20200;-63
2023/11/17 09:33:03;;;;;;;6.90;4.93;;;10.90;99.90;;;;;;5061669;28;20226;-63
2023/11/17 09:35:32;;;;;;;6.73;4.73;;;11.00;99.90;;;;;;5063302;28;20201;-63
2023/11/17 09:38:00;;;;;;;7.17;5.80;;;11.10;99.90;;;;;;5065202;28;20201;-63
2023/11/17 09:40:28;;;;;;;7.37;5.37;;;11.10;99.90;;;;;;5064332;28;20208;-63
2023/11/17 09:42:57;;;;;;;8.73;6.00;;;11.10;99.90;;;;;;5061825;28;20312;-62
2023/11/17 09:45:25;;;;;;;7.47;6.03;;;11.20;99.90;;;;;;5061722;28;20698;-62
2023/11/17 09:47:54;;;;;;;6.80;6.00;;;11.20;99.90;;;;;;5065213;28;20196;-63
2023/11/17 09:50:22;;;;;;;8.10;5.90;;;11.20;99.90;;;;;;5064754;28;20656;-63
2023/11/17 09:52:52;;;;;;;7.13;5.60;;;11.20;99.90;;;;;;5061473;28;20609;-62
2023/11/17 09:55:22;;;;;;;8.30;5.80;;;11.20;99.90;;;;;;5061656;28;20284;-63
2023/11/17 09:57:49;;;;;;;9.03;6.10;;;11.10;99.90;;;;;;5054167;28;20197;-61
2023/11/17 10:00:20;;;;;;;9.77;5.67;;;11.00;99.90;;;;;;5061717;28;20204;-63
2023/11/17 10:02:54;;;;;;;7.17;5.47;;;11.00;99.90;;;;;;5080951;22;20225;-56
2023/11/17 10:05:23;;;;;;;7.97;6.00;;;11.00;99.90;;;;;;5081281;28;20294;-56
2023/11/17 10:07:53;;;;;;;6.47;5.23;;;11.00;99.90;;;;;;5085129;28;20211;-55
2023/11/17 10:10:21;;;;;;;7.17;5.33;;;10.90;99.90;;;;;;5084698;28;20591;-59
2023/11/17 10:12:49;;;;;;;6.47;5.40;;;10.90;99.90;;;;;;5077418;28;20236;-55
2023/11/17 10:15:18;;;;;;;7.33;4.90;;;11.00;99.90;;;;;;5072678;28;20200;-55
2023/11/17 10:17:48;;;;;;;8.50;5.00;;;11.00;99.90;;;;;;5072372;28;20205;-59
2023/11/17 10:20:17;;;;;;;6.37;5.27;;;11.10;99.90;;;;;;5072733;28;20208;-58
2023/11/17 10:22:51;;;;;;;6.93;5.10;;;11.00;99.90;;;;;;5072253;28;20318;-59
2023/11/17 10:25:19;;;;;;;6.03;5.20;;;11.00;99.90;;;;;;5072424;28;20233;-58
2023/11/17 10:27:49;;;;;;;6.97;5.70;;;11.00;99.90;;;;;;5072536;28;20201;-56
2023/11/17 10:30:16;;;;;;;7.73;6.13;;;11.00;99.90;;;;;;5058588;28;20223;-57
2023/11/17 10:32:50;;;;;;;6.53;5.53;;;11.10;99.90;;;;;;5051943;28;20372;-56
2023/11/17 10:35:24;;;;;;;10.20;7.37;;;11.10;99.90;;;;;;5051512;28;20201;-58
2023/11/17 10:37:54;;;;;;;6.17;5.37;;;11.10;99.90;;;;;;5050755;28;20201;-57
2023/11/17 10:40:25;;;;;;;8.40;5.07;;;11.00;99.90;;;;;;5051678;28;20206;-58
2023/11/17 10:43:04;;;;;;;7.03;5.70;;;11.00;99.90;;;;;;5052149;28;20257;-58
2023/11/17 10:45:32;;;;;;;6.63;5.00;;;11.00;99.90;;;;;;5052025;28;20247;-58
2023/11/17 10:47:59;;;;;;;8.70;5.70;;;11.00;99.90;;;;;;5052105;28;20206;-58
2023/11/17 10:50:28;;;;;;;6.77;5.37;;;11.00;99.90;;;;;;5050432;28;20206;-58
2023/11/17 10:52:57;;;;;;;6.17;5.10;;;11.10;99.90;;;;;;5051898;28;20221;-56
2023/11/17 10:55:34;;;;;;;9.07;4.90;;;11.10;99.90;;;;;;5051441;28;20301;-59
2023/11/17 10:58:06;;;;;;;6.10;5.47;;;11.10;99.90;;;;;;5052171;28;20343;-59
2023/11/17 11:00:34;;;;;;;9.57;5.53;;;11.10;99.90;;;;;;5051887;28;20293;-58
2023/11/17 11:03:02;;;;;;;6.83;5.40;;;11.20;99.90;;;;;;5051673;28;20268;-58
2023/11/17 11:05:29;;;;;;;6.53;5.30;;;11.20;99.90;;;;;;5051061;28;20226;-59
2023/11/17 11:07:58;;;;;;;8.70;6.47;;;11.20;99.90;;;;;;5051955;28;20208;-59
2023/11/17 11:10:28;;;;;;;7.90;5.53;;;11.20;99.90;;;;;;5051354;28;20248;-57
2023/11/17 11:12:54;;;;;;;5.77;4.80;;;11.20;99.90;;;;;;5051465;28;20233;-59
2023/11/17 11:15:21;;;;;;;6.70;5.07;;;11.20;99.90;;;;;;5051389;28;20209;-59
2023/11/17 11:17:52;;;;;;;6.37;4.90;;;11.20;99.90;;;;;;5051085;28;20695;-59
2023/11/17 11:20:21;;;;;;;9.70;6.07;;;11.20;99.90;;;;;;5051245;28;20216;-59
2023/11/17 11:22:50;;;;;;;7.13;5.50;;;11.20;99.90;;;;;;5051590;28;20317;-58
2023/11/17 11:25:19;;;;;;;8.27;5.13;;;11.20;99.90;;;;;;5050891;28;20225;-57
2023/11/17 11:27:47;;;;;;;5.53;4.90;;;11.20;99.90;;;;;;5051029;28;20214;-58
2023/11/17 11:30:16;;;;;;;7.37;5.63;;;11.30;99.90;;;;;;5050929;28;20212;-59
2023/11/17 11:32:45;;;;;;;8.00;5.03;;;11.20;99.90;;;;;;5050624;28;20715;-58
2023/11/17 11:35:13;;;;;;;10.03;6.30;;;11.20;99.90;;;;;;5051133;28;20317;-58
2023/11/17 11:37:40;;;;;;;6.37;5.23;;;11.20;99.90;;;;;;5051178;28;20713;-57
2023/11/17 11:40:12;;;;;;;7.63;5.30;;;11.20;99.90;;;;;;5051008;28;20635;-59
2023/11/17 11:42:42;;;;;;;6.63;5.07;;;11.20;99.90;;;;;;5050659;28;20237;-56
2023/11/17 11:45:15;;;;;;;5.50;4.90;;;11.20;99.90;;;;;;5050488;28;20298;-59
2023/11/17 11:47:45;;;;;;;5.27;4.73;;;11.20;99.90;;;;;;5050801;28;20212;-59
2023/11/17 11:50:13;;;;;;;6.07;5.00;;;11.00;99.90;;;;;;5057715;28;20205;-57
2023/11/17 11:52:47;;;;;;;7.53;5.40;;;11.00;99.90;;;;;;5070371;28;20216;-57
2023/11/17 11:55:16;;;;;;;8.03;5.40;;;11.00;99.90;;;;;;5071055;28;20292;-56
2023/11/17 11:57:57;;;;;;;5.97;4.77;;;11.00;99.90;;;;;;5070967;28;20204;-57
2023/11/17 12:00:26;;;;;;;8.97;5.27;;;11.00;99.90;;;;;;5070867;28;20255;-57
2023/11/17 12:02:54;;;;;;;6.83;4.73;;;11.10;99.90;;;;;;5071015;28;20228;-57
2023/11/17 12:05:23;;;;;;;4.80;3.63;;;11.20;99.90;;;;;;5071000;28;20581;-56
2023/11/17 12:07:49;;;;;;;5.93;5.03;;;11.20;99.90;;;;;;5054560;28;20204;-57
2023/11/17 12:10:19;;;;;;;8.00;5.00;;;11.30;99.90;;;;;;5070604;28;20208;-57
2023/11/17 12:12:47;;;;;;;12.13;9.80;;;11.40;99.90;;;;;;5070945;28;20220;-57
2023/11/17 12:15:14;;;;;;;6.00;4.00;;;11.40;99.90;;;;;;5070659;28;20201;-56
2023/11/17 12:17:43;;;;;;;5.60;3.70;;;11.40;99.90;;;;;;5070923;28;20236;-56
2023/11/17 12:20:21;;;;;;;6.27;4.03;;;11.40;99.90;;;;;;5070916;28;20282;-57
2023/11/17 12:22:58;;;;;;;5.77;4.77;;;11.50;99.90;;;;;;5070359;28;20225;-55
2023/11/17 12:25:26;;;;;;;5.80;3.73;;;11.50;99.90;;;;;;5070370;28;20255;-59
2023/11/17 12:27:55;;;;;;;7.53;4.23;;;11.60;99.90;;;;;;5070819;28;20203;-56
2023/11/17 12:30:22;;;;;;;8.17;5.50;;;11.60;99.90;;;;;;5070789;28;20692;-56
2023/11/17 12:32:51;;;;;;;5.43;4.13;;;11.70;99.90;;;;;;5071527;28;20227;-56
2023/11/17 12:35:20;;;;;;;6.07;5.30;;;11.80;99.90;;;;;;5070514;28;20255;-58
2023/11/17 12:37:48;;;;;;;5.90;4.77;;;11.90;99.90;;;;;;5070592;28;20223;-55
2023/11/17 12:40:16;;;;;;;6.70;3.70;;;11.90;99.90;;;;;;5070417;28;20228;-57
2023/11/17 12:42:43;;;;;;;6.90;5.27;;;11.90;99.90;;;;;;5070189;28;20635;-57
2023/11/17 12:45:13;;;;;;;4.47;3.67;;;11.90;99.90;;;;;;5070643;28;20292;-58
2023/11/17 12:47:40;;;;;;;5.07;3.80;;;11.80;99.90;;;;;;5070876;28;20216;-56
2023/11/17 12:50:10;;;;;;;4.47;3.20;;;11.90;99.90;;;;;;5071040;28;20197;-57
2023/11/17 12:52:37;;;;;;;3.80;2.40;;;11.90;99.90;;;;;;5069900;28;20670;-57
2023/11/17 12:55:07;;;;;;;3.40;2.60;;;12.00;99.90;;;;;;5070698;28;20201;-56
2023/11/17 12:57:34;;;;;;;4.77;3.60;;;12.00;99.90;;;;;;5070613;28;20353;-57